createdAt,value
2023-03-28T00:01:14.430Z,3.40
2023-03-28T00:05:14.475Z,3.48
2023-03-28T00:09:14.765Z,2.53
2023-03-28T00:13:14.745Z,2.85
2023-03-28T00:17:14.782Z,2.88
2023-03-28T00:21:15.315Z,3.83
2023-03-28T00:25:15.105Z,3.66
2023-03-28T00:29:15.257Z,3.36
2023-03-28T00:33:15.434Z,3.79
2023-03-28T00:37:15.504Z,4.55
2023-03-28T00:41:15.746Z,4.53
2023-03-28T00:45:16.272Z,4.17
2023-03-28T00:49:16.342Z,4.41
2023-03-28T00:53:16.016Z,4.56
2023-03-28T00:57:16.192Z,4.57
2023-03-28T01:01:16.369Z,5.02
2023-03-28T01:05:16.759Z,4.32
2023-03-28T01:09:16.768Z,4.63
2023-03-28T01:13:16.541Z,4.55
2023-03-28T01:17:16.627Z,4.03
2023-03-28T01:21:17.331Z,3.84
2023-03-28T01:25:17.415Z,3.90
2023-03-28T01:29:17.353Z,3.60
2023-03-28T01:33:17.329Z,3.36
2023-03-28T01:37:17.745Z,3.07
2023-03-28T01:41:17.757Z,3.35
2023-03-28T01:45:17.749Z,3.55
2023-03-28T01:49:17.378Z,3.60
2023-03-28T01:53:17.351Z,3.03
2023-03-28T01:57:17.403Z,2.53
2023-03-28T02:01:17.810Z,2.62
2023-03-28T02:05:17.272Z,2.74
2023-03-28T02:09:17.362Z,2.59
2023-03-28T02:13:17.188Z,2.62
2023-03-28T02:17:17.320Z,2.40
2023-03-28T02:21:17.288Z,2.46
2023-03-28T02:25:17.790Z,2.25
2023-03-28T02:29:17.614Z,2.96
2023-03-28T02:33:17.765Z,2.20
2023-03-28T02:37:17.966Z,1.97
2023-03-28T02:41:18.302Z,1.50
2023-03-28T02:45:18.307Z,1.54
2023-03-28T02:49:18.311Z,1.43
2023-03-28T02:53:17.789Z,1.64
2023-03-28T02:57:17.801Z,1.96
2023-03-28T03:01:17.819Z,1.78
2023-03-28T03:05:17.797Z,2.30
2023-03-28T03:09:17.665Z,1.69
2023-03-28T03:13:17.812Z,1.54
2023-03-28T03:17:17.930Z,1.87
2023-03-28T03:21:18.327Z,1.17
2023-03-28T03:25:18.301Z,1.31
2023-03-28T03:29:18.016Z,1.31
2023-03-28T03:33:17.973Z,0.76
2023-03-28T03:37:18.311Z,1.02
2023-03-28T03:41:18.290Z,1.44
2023-03-28T03:45:18.317Z,1.08
2023-03-28T03:49:17.831Z,1.02
2023-03-28T03:53:17.781Z,1.15
2023-03-28T03:57:17.828Z,1.49
2023-03-28T04:01:17.800Z,1.29
2023-03-28T04:05:17.806Z,1.61
2023-03-28T04:09:17.663Z,1.55
2023-03-28T04:13:17.794Z,1.51
2023-03-28T04:17:17.809Z,1.73
2023-03-28T04:21:17.789Z,1.81
2023-03-28T04:25:17.522Z,1.67
2023-03-28T04:29:17.801Z,2.31
2023-03-28T04:33:17.399Z,2.21
2023-03-28T04:37:17.808Z,1.90
2023-03-28T04:41:17.827Z,1.96
2023-03-28T04:45:18.292Z,2.59
2023-03-28T04:49:18.300Z,2.53
2023-03-28T04:53:18.245Z,2.48
2023-03-28T04:57:18.488Z,2.55
2023-03-28T05:01:18.390Z,2.66
2023-03-28T05:05:18.112Z,3.24
2023-03-28T05:09:18.186Z,3.01
2023-03-28T05:13:18.573Z,2.73
2023-03-28T05:17:18.498Z,2.72
2023-03-28T05:21:18.507Z,3.70
2023-03-28T05:25:18.168Z,3.70
2023-03-28T05:29:18.376Z,3.69
2023-03-28T05:33:18.169Z,3.45
2023-03-28T05:37:18.385Z,3.58
2023-03-28T05:41:17.920Z,3.88
2023-03-28T05:45:18.367Z,4.28
2023-03-28T05:49:17.812Z,3.99
2023-03-28T05:53:17.842Z,3.70
2023-03-28T05:57:18.009Z,5.46
2023-03-28T06:01:17.693Z,5.58
2023-03-28T06:05:17.871Z,6.43
2023-03-28T06:09:17.614Z,5.68
2023-03-28T06:13:17.811Z,7.50
2023-03-28T06:17:17.830Z,7.56
2023-03-28T06:21:17.601Z,9.04
2023-03-28T06:25:17.832Z,9.16
2023-03-28T06:29:18.358Z,8.87
2023-03-28T06:33:18.331Z,10.04
2023-03-28T06:37:18.350Z,9.66
2023-03-28T06:41:18.250Z,9.11
2023-03-28T06:45:18.366Z,9.77
2023-03-28T06:49:18.868Z,10.39
2023-03-28T06:53:18.843Z,9.53
2023-03-28T07:01:38.685Z,9.12
2023-03-28T07:05:38.769Z,9.26
2023-03-28T07:09:38.503Z,9.70
2023-03-28T07:13:38.444Z,8.08
2023-03-28T07:17:38.457Z,7.69
2023-03-28T07:21:38.374Z,7.55
2023-03-28T07:25:38.372Z,8.24
2023-03-28T07:29:38.320Z,7.83
2023-03-28T07:33:38.570Z,8.01
2023-03-28T07:37:38.336Z,8.07
2023-03-28T07:41:38.544Z,7.17
2023-03-28T07:45:38.811Z,6.73
2023-03-28T07:49:38.826Z,6.35
2023-03-28T07:53:38.976Z,6.13
2023-03-28T07:57:38.999Z,6.36
2023-03-28T08:01:39.132Z,6.30
2023-03-28T08:05:39.453Z,6.52
2023-03-28T08:09:39.325Z,5.49
2023-03-28T08:13:39.376Z,5.24
2023-03-28T08:17:38.974Z,4.34
2023-03-28T08:21:39.312Z,5.35
2023-03-28T08:25:38.827Z,5.84
2023-03-28T08:29:38.775Z,4.47
2023-03-28T08:33:38.836Z,4.65
2023-03-28T08:37:38.696Z,6.00
2023-03-28T08:41:38.819Z,5.38
2023-03-28T08:45:38.759Z,5.39
2023-03-28T08:49:38.869Z,4.28
2023-03-28T08:53:38.558Z,4.39
2023-03-28T08:57:38.861Z,4.71
2023-03-28T09:01:38.855Z,4.37
2023-03-28T09:05:39.491Z,4.56
2023-03-28T09:09:39.436Z,4.10
2023-03-28T09:13:39.037Z,4.54
2023-03-28T09:17:39.363Z,4.23
2023-03-28T09:21:39.300Z,4.23
2023-03-28T09:25:39.803Z,5.13
2023-03-28T09:29:39.840Z,4.95
2023-03-28T09:33:39.453Z,3.24
2023-03-28T09:37:39.815Z,4.25
2023-03-28T09:41:39.830Z,3.89
2023-03-28T09:45:40.353Z,3.53
2023-03-28T09:49:39.998Z,4.60
2023-03-28T09:53:40.366Z,4.50
2023-03-28T09:57:40.365Z,3.58
2023-03-28T10:01:40.363Z,3.30
2023-03-28T10:05:40.096Z,2.89
2023-03-28T10:09:40.022Z,2.75
2023-03-28T10:13:39.951Z,3.20
2023-03-28T10:17:40.061Z,2.70
2023-03-28T10:21:40.015Z,2.93
2023-03-28T10:25:39.892Z,3.12
2023-03-28T10:29:39.818Z,2.82
2023-03-28T10:33:39.788Z,4.76
2023-03-28T10:37:39.803Z,3.54
2023-03-28T10:41:39.838Z,3.03
2023-03-28T10:45:40.051Z,3.18
2023-03-28T10:49:40.181Z,2.86
2023-03-28T10:53:40.358Z,12.94
2023-03-28T10:57:40.559Z,2.52
2023-03-28T11:01:52.386Z,2.24
2023-03-28T11:05:40.613Z,8.60
2023-03-28T11:09:40.609Z,3.23
2023-03-28T11:13:50.924Z,2.68
2023-03-28T11:17:40.568Z,2.59
2023-03-28T11:21:40.512Z,2.42
2023-03-28T11:25:40.454Z,3.08
2023-03-28T11:29:43.712Z,2.87
2023-03-28T11:33:40.364Z,3.28
2023-03-28T11:37:40.400Z,2.43
2023-03-28T11:41:40.362Z,2.70
2023-03-28T11:45:51.107Z,2.98
2023-03-28T11:49:41.247Z,2.65
2023-03-28T11:53:40.368Z,3.30
2023-03-28T11:57:40.433Z,2.37
2023-03-28T12:01:40.252Z,2.28
2023-03-28T12:05:40.548Z,2.19
2023-03-28T12:09:40.854Z,2.94
2023-03-28T12:13:46.066Z,3.13
2023-03-28T12:17:41.902Z,2.61
2023-03-28T12:21:40.493Z,2.24
2023-03-28T12:25:40.861Z,2.82
2023-03-28T12:29:40.892Z,2.85
2023-03-28T12:33:40.407Z,3.10
2023-03-28T12:37:40.872Z,2.71
2023-03-28T12:41:40.474Z,2.77
2023-03-28T12:45:40.937Z,2.48
2023-03-28T12:49:40.908Z,2.59
2023-03-28T12:53:41.422Z,2.08
2023-03-28T12:57:41.479Z,2.48
2023-03-28T13:01:52.446Z,2.80
2023-03-28T13:05:41.395Z,2.68
2023-03-28T13:09:41.156Z,2.44
2023-03-28T13:13:41.437Z,2.58
2023-03-28T13:17:41.115Z,2.41
2023-03-28T13:21:41.078Z,2.08
2023-03-28T13:25:41.129Z,2.29
2023-03-28T13:29:40.944Z,2.11
2023-03-28T13:33:42.919Z,2.28
2023-03-28T13:37:40.973Z,2.50
2023-03-28T13:41:40.816Z,2.35
2023-03-28T13:45:40.926Z,2.64
2023-03-28T13:49:40.965Z,1.90
2023-03-28T13:53:47.464Z,2.01
2023-03-28T13:57:41.918Z,2.71
2023-03-28T14:01:40.788Z,2.24
2023-03-28T14:05:41.013Z,2.78
2023-03-28T14:09:40.816Z,1.89
2023-03-28T14:13:40.960Z,2.52
2023-03-28T14:17:40.756Z,2.58
2023-03-28T14:21:40.680Z,2.66
2023-03-28T14:25:40.959Z,2.51
2023-03-28T14:29:40.967Z,2.24
2023-03-28T14:33:41.000Z,2.70
2023-03-28T14:37:41.500Z,2.14
2023-03-28T14:41:40.960Z,1.90
2023-03-28T14:45:41.134Z,2.22
2023-03-28T14:49:41.460Z,2.27
2023-03-28T14:53:41.182Z,2.07
2023-03-28T14:57:41.321Z,2.43
2023-03-28T15:01:41.529Z,2.54
2023-03-28T15:05:41.626Z,2.15
2023-03-28T15:09:42.051Z,2.20
2023-03-28T15:13:41.954Z,2.59
2023-03-28T15:17:42.137Z,2.78
2023-03-28T15:21:42.073Z,2.65
2023-03-28T15:25:41.809Z,2.65
2023-03-28T15:29:41.937Z,2.93
2023-03-28T15:33:41.794Z,2.94
2023-03-28T15:37:41.980Z,3.02
2023-03-28T15:41:41.681Z,3.09
2023-03-28T15:45:41.957Z,3.00
2023-03-28T15:49:41.675Z,2.88
2023-03-28T15:53:41.547Z,3.25
2023-03-28T15:57:42.028Z,2.86
2023-03-28T16:01:41.535Z,2.48
2023-03-28T16:05:41.956Z,2.46
2023-03-28T16:09:41.464Z,2.84
2023-03-28T16:13:41.409Z,3.84
2023-03-28T16:17:41.451Z,3.08
2023-03-28T16:21:41.500Z,3.84
2023-03-28T16:25:41.983Z,3.01
2023-03-28T16:29:41.751Z,3.56
2023-03-28T16:33:41.995Z,3.53
2023-03-28T16:37:42.486Z,3.21
2023-03-28T16:41:42.493Z,4.01
2023-03-28T16:45:42.510Z,3.22
2023-03-28T16:49:42.396Z,3.40
2023-03-28T16:53:42.977Z,3.03
2023-03-28T16:57:42.997Z,3.95
2023-03-28T17:01:43.087Z,3.31
2023-03-28T17:05:42.921Z,2.96
2023-03-28T17:09:43.077Z,2.73
2023-03-28T17:13:43.132Z,2.84
2023-03-28T17:17:43.545Z,2.93
2023-03-28T17:21:42.964Z,2.71
2023-03-28T17:25:53.856Z,3.18
2023-03-28T17:29:43.896Z,3.11
2023-03-28T17:33:42.963Z,13.10
2023-03-28T17:37:42.960Z,3.60
2023-03-28T17:41:42.979Z,2.97
2023-03-28T17:45:42.979Z,6.69
2023-03-28T17:49:42.697Z,6.56
2023-03-28T17:53:42.995Z,4.93
2023-03-28T17:57:42.820Z,7.74
2023-03-28T18:01:43.070Z,4.15
2023-03-28T18:05:43.048Z,4.34
2023-03-28T18:09:43.191Z,3.70
2023-03-28T18:13:43.474Z,4.12
2023-03-28T18:17:43.520Z,4.01
2023-03-28T18:21:43.961Z,3.59
2023-03-28T18:25:43.449Z,3.48
2023-03-28T18:29:43.514Z,3.38
2023-03-28T18:33:43.412Z,3.46
2023-03-28T18:37:43.478Z,4.62
2023-03-28T18:41:43.518Z,4.66
2023-03-28T18:45:43.250Z,34.94
2023-03-28T18:49:43.279Z,25.08
2023-03-28T18:53:43.487Z,13.70
2023-03-28T18:57:43.516Z,8.70
2023-03-28T19:01:44.989Z,5.25
2023-03-28T19:05:43.144Z,4.37
2023-03-28T19:09:43.077Z,4.78
2023-03-28T19:13:43.526Z,5.13
2023-03-28T19:17:43.085Z,4.33
2023-03-28T19:21:43.169Z,4.78
2023-03-28T19:25:43.540Z,4.64
2023-03-28T19:29:43.414Z,4.91
2023-03-28T19:33:43.516Z,4.16
2023-03-28T19:37:43.542Z,4.93
2023-03-28T19:41:43.791Z,5.12
2023-03-28T19:45:44.064Z,5.67
2023-03-28T19:49:44.672Z,5.23
2023-03-28T19:53:44.560Z,4.42
2023-03-28T19:57:44.535Z,4.17
2023-03-28T20:01:44.661Z,5.54
2023-03-28T20:05:44.986Z,5.37
2023-03-28T20:09:45.153Z,5.12
2023-03-28T20:13:45.071Z,5.44
2023-03-28T20:17:45.703Z,5.76
2023-03-28T20:21:45.446Z,5.84
2023-03-28T20:25:46.019Z,6.07
2023-03-28T20:29:45.934Z,5.77
2023-03-28T20:33:46.163Z,5.78
2023-03-28T20:37:46.132Z,5.90
2023-03-28T20:41:46.527Z,5.44
2023-03-28T20:45:46.504Z,4.98
2023-03-28T20:49:46.108Z,4.73
2023-03-28T20:53:46.030Z,5.85
2023-03-28T20:57:46.021Z,5.43
2023-03-28T21:01:46.142Z,4.26
2023-03-28T21:05:46.221Z,4.06
2023-03-28T21:09:45.852Z,4.05
2023-03-28T21:13:46.149Z,5.21
2023-03-28T21:17:46.024Z,4.71
2023-03-28T21:21:46.696Z,4.30
2023-03-28T21:25:46.421Z,4.32
2023-03-28T21:29:46.562Z,4.07
2023-03-28T21:33:46.589Z,3.84
2023-03-28T21:37:46.627Z,3.98
2023-03-28T21:41:47.138Z,4.65
2023-03-28T21:45:47.095Z,4.47
2023-03-28T21:49:47.115Z,4.17
2023-03-28T21:53:46.641Z,4.42
2023-03-28T21:57:47.101Z,4.60
2023-03-28T22:01:46.701Z,5.16
2023-03-28T22:05:47.039Z,4.77
2023-03-28T22:09:47.050Z,5.01
2023-03-28T22:13:46.633Z,4.93
2023-03-28T22:17:47.463Z,4.56
2023-03-28T22:21:47.146Z,5.36
2023-03-28T22:25:47.077Z,5.24
2023-03-28T22:29:47.084Z,5.37
2023-03-28T22:33:46.829Z,5.67
2023-03-28T22:37:46.863Z,5.11
2023-03-28T22:41:47.112Z,2.91
2023-03-28T22:45:47.077Z,3.50
2023-03-28T22:49:47.070Z,3.79
2023-03-28T22:53:47.016Z,3.72
2023-03-28T22:57:47.057Z,3.33
2023-03-28T23:01:47.628Z,3.56
2023-03-28T23:05:47.567Z,4.10
2023-03-28T23:09:47.581Z,3.89
2023-03-28T23:13:47.436Z,4.53
2023-03-28T23:17:47.687Z,4.47
2023-03-28T23:21:47.544Z,5.55
2023-03-28T23:25:47.613Z,4.59
2023-03-28T23:29:47.582Z,4.89
2023-03-28T23:33:47.698Z,5.01
2023-03-28T23:37:48.080Z,5.34
2023-03-28T23:41:48.103Z,5.07
2023-03-28T23:45:48.136Z,4.34
2023-03-28T23:49:47.907Z,5.38
2023-03-28T23:53:47.942Z,4.45
2023-03-28T23:57:48.100Z,5.19
